Time;durP1;ratioP1;P1;durP2;ratioP2;P2;SDS_P1;SDS_P2;PMS_P1;PMS_P2;Temp;Humidity;BMP_temperature;BMP_pressure;BME280_temperature;BME280_humidity;BME280_pressure;Samples;Min_cycle;Max_cycle;Signal;HPM_P1;HPM_P2
2022/03/11 00:00:49;;;;;;;14.63;9.25;;;;;;;;;;5039466;28;20056;-69
2022/03/11 00:03:18;;;;;;;17.50;10.23;;;;;;;;;;5041152;28;20053;-69
2022/03/11 00:05:45;;;;;;;17.02;9.88;;;;;;;;;;5044322;28;20061;-68
2022/03/11 00:08:13;;;;;;;15.32;11.05;;;;;;;;;;5040509;28;20084;-68
2022/03/11 00:10:42;;;;;;;14.20;9.50;;;;;;;;;;5037684;28;20848;-68
2022/03/11 00:13:11;;;;;;;18.55;10.77;;;;;;;;;;5039057;28;20056;-68
2022/03/11 00:15:38;;;;;;;16.23;10.10;;;;;;;;;;5040124;28;20068;-68
2022/03/11 00:18:05;;;;;;;15.07;10.23;;;;;;;;;;5040266;28;20578;-68
2022/03/11 00:20:32;;;;;;;16.17;10.48;;;;;;;;;;5032959;28;20045;-68
2022/03/11 00:23:00;;;;;;;17.50;10.55;;;;;;;;;;5044400;28;20055;-69
2022/03/11 00:25:29;;;;;;;19.83;10.45;;;;;;;;;;5038548;28;20155;-69
2022/03/11 00:27:59;;;;;;;17.02;10.55;;;;;;;;;;5044795;28;20040;-68
2022/03/11 00:30:28;;;;;;;19.10;10.48;;;;;;;;;;5040817;28;20598;-69
2022/03/11 00:32:56;;;;;;;18.13;10.73;;;;;;;;;;5041038;28;20064;-68
2022/03/11 00:35:26;;;;;;;15.40;10.60;;;;;;;;;;5037624;28;20084;-69
2022/03/11 00:37:55;;;;;;;15.82;10.32;;;;;;;;;;5033397;28;20057;-68
2022/03/11 00:40:23;;;;;;;18.45;10.27;;;;;;;;;;5036148;28;20403;-68
2022/03/11 00:42:50;;;;;;;14.63;9.90;;;;;;;;;;5042101;28;20060;-69
2022/03/11 00:45:18;;;;;;;22.63;10.90;;;;;;;;;;5041375;28;20476;-68
2022/03/11 00:47:46;;;;;;;17.13;10.18;;;;;;;;;;5041689;28;20064;-68
2022/03/11 00:50:14;;;;;;;20.48;10.60;;;;;;;;;;5043072;28;20049;-68
2022/03/11 00:52:42;;;;;;;14.95;10.27;;;;;;;;;;5040441;28;20984;-68
2022/03/11 00:55:10;;;;;;;22.80;10.48;;;;;;;;;;5040829;28;20454;-68
2022/03/11 00:57:37;;;;;;;19.10;10.82;;;;;;;;;;5044055;28;20441;-68
2022/03/11 01:00:04;;;;;;;17.73;10.88;;;;;;;;;;5040763;28;20136;-68
2022/03/11 01:02:34;;;;;;;18.33;11.23;;;;;;;;;;5043126;28;20057;-68
2022/03/11 01:05:03;;;;;;;17.75;10.95;;;;;;;;;;5040383;28;20081;-68
2022/03/11 01:07:37;;;;;;;17.95;11.48;;;;;;;;;;5038459;28;20057;-68
2022/03/11 01:10:05;;;;;;;17.88;11.55;;;;;;;;;;5040470;28;20049;-68
2022/03/11 01:12:32;;;;;;;16.98;11.00;;;;;;;;;;5042566;28;20053;-69
2022/03/11 01:14:59;;;;;;;22.77;12.20;;;;;;;;;;5034672;28;20066;-68
2022/03/11 01:17:27;;;;;;;19.75;10.75;;;;;;;;;;5044124;28;21383;-68
2022/03/11 01:19:54;;;;;;;19.75;11.02;;;;;;;;;;5039346;28;20523;-68
2022/03/11 01:22:23;;;;;;;16.20;10.75;;;;;;;;;;5038277;28;20094;-68
2022/03/11 01:24:50;;;;;;;16.02;11.07;;;;;;;;;;5041635;28;20456;-68
2022/03/11 01:27:17;;;;;;;17.90;11.25;;;;;;;;;;5038597;28;20759;-68
2022/03/11 01:29:45;;;;;;;16.67;10.80;;;;;;;;;;5042687;28;20045;-68
2022/03/11 01:32:12;;;;;;;14.63;9.80;;;;;;;;;;5038966;28;20452;-68
2022/03/11 01:34:39;;;;;;;20.75;10.88;;;;;;;;;;5040965;28;20080;-68
2022/03/11 01:37:07;;;;;;;21.00;11.45;;;;;;;;;;5042006;28;20057;-68
2022/03/11 01:39:36;;;;;;;18.27;10.35;;;;;;;;;;5033808;28;20518;-68
2022/03/11 01:42:03;;;;;;;19.92;11.10;;;;;;;;;;5042958;28;20399;-68
2022/03/11 01:44:30;;;;;;;15.88;10.23;;;;;;;;;;5035596;28;20056;-68
2022/03/11 01:46:57;;;;;;;15.40;10.23;;;;;;;;;;5033833;28;20067;-68
2022/03/11 01:49:25;;;;;;;16.95;10.35;;;;;;;;;;5041782;28;20053;-68
2022/03/11 01:51:53;;;;;;;16.45;10.27;;;;;;;;;;5039113;28;20056;-68
2022/03/11 01:54:20;;;;;;;17.38;10.25;;;;;;;;;;5042503;28;20049;-68
2022/03/11 01:56:49;;;;;;;16.92;10.13;;;;;;;;;;5042076;28;20065;-68
2022/03/11 01:59:16;;;;;;;15.68;9.70;;;;;;;;;;5045035;28;20076;-68
2022/03/11 02:01:44;;;;;;;15.73;9.90;;;;;;;;;;5045512;28;20572;-68
2022/03/11 02:04:11;;;;;;;17.08;9.52;;;;;;;;;;5039686;28;20511;-67
2022/03/11 02:06:38;;;;;;;14.13;9.45;;;;;;;;;;5040853;28;20056;-67
2022/03/11 02:09:06;;;;;;;16.27;9.77;;;;;;;;;;5045810;28;20045;-67
2022/03/11 02:11:33;;;;;;;18.80;10.15;;;;;;;;;;5043602;28;20551;-67
2022/03/11 02:14:02;;;;;;;13.80;9.45;;;;;;;;;;5039984;28;20049;-67
2022/03/11 02:16:30;;;;;;;15.98;9.60;;;;;;;;;;5044701;28;20083;-67
2022/03/11 02:18:58;;;;;;;14.38;8.80;;;;;;;;;;5042727;28;20060;-67
2022/03/11 02:21:26;;;;;;;14.55;8.90;;;;;;;;;;5043568;28;20064;-67
2022/03/11 02:23:55;;;;;;;18.75;9.55;;;;;;;;;;5041938;28;20061;-67
2022/03/11 02:26:24;;;;;;;14.07;8.77;;;;;;;;;;5040388;28;20056;-67
2022/03/11 02:28:53;;;;;;;14.48;8.82;;;;;;;;;;5044572;28;20052;-67
2022/03/11 02:31:26;;;;;;;12.88;8.52;;;;;;;;;;5042549;28;20049;-67
2022/03/11 02:34:03;;;;;;;16.48;8.88;;;;;;;;;;5040607;28;20103;-67
2022/03/11 02:36:34;;;;;;;13.48;8.73;;;;;;;;;;5042035;28;20159;-67
2022/03/11 02:39:13;;;;;;;13.27;8.70;;;;;;;;;;5041716;28;20419;-67
2022/03/11 02:41:49;;;;;;;16.67;9.18;;;;;;;;;;5025575;28;20519;-67
2022/03/11 02:44:29;;;;;;;17.77;9.25;;;;;;;;;;5045223;28;20041;-67
2022/03/11 02:47:00;;;;;;;13.18;8.63;;;;;;;;;;5040887;28;20056;-67
2022/03/11 02:49:31;;;;;;;14.48;8.30;;;;;;;;;;5021904;28;20041;-67
2022/03/11 02:51:59;;;;;;;12.52;8.05;;;;;;;;;;5041011;28;20060;-67
2022/03/11 02:54:28;;;;;;;12.43;8.40;;;;;;;;;;5044570;28;20467;-67
2022/03/11 02:56:55;;;;;;;13.40;8.85;;;;;;;;;;5043529;28;20106;-67
2022/03/11 02:59:23;;;;;;;14.27;8.13;;;;;;;;;;5044478;28;20098;-67
2022/03/11 03:01:52;;;;;;;16.55;8.25;;;;;;;;;;5045142;28;20056;-67
2022/03/11 03:04:22;;;;;;;16.92;9.02;;;;;;;;;;5047722;28;20057;-67
2022/03/11 03:06:49;;;;;;;17.48;8.55;;;;;;;;;;5047467;28;20045;-67
2022/03/11 03:09:17;;;;;;;15.88;8.70;;;;;;;;;;5050058;28;20060;-67
2022/03/11 03:11:47;;;;;;;15.55;8.45;;;;;;;;;;5047779;28;20128;-67
2022/03/11 03:14:17;;;;;;;13.20;8.02;;;;;;;;;;5045504;28;20147;-67
2022/03/11 03:16:45;;;;;;;13.35;8.93;;;;;;;;;;5047005;28;20055;-67
2022/03/11 03:19:13;;;;;;;12.55;8.13;;;;;;;;;;5047168;28;20060;-67
2022/03/11 03:21:42;;;;;;;15.90;8.68;;;;;;;;;;5046385;28;20480;-67
2022/03/11 03:24:12;;;;;;;17.73;8.32;;;;;;;;;;5043535;28;20101;-67
2022/03/11 03:26:39;;;;;;;14.00;8.93;;;;;;;;;;5031439;28;20085;-67
2022/03/11 03:29:08;;;;;;;16.35;9.25;;;;;;;;;;5046362;28;20049;-67
2022/03/11 03:31:37;;;;;;;14.57;8.77;;;;;;;;;;5047331;28;20711;-67
2022/03/11 03:34:05;;;;;;;15.35;8.48;;;;;;;;;;5028213;28;20068;-68
2022/03/11 03:36:33;;;;;;;14.90;8.88;;;;;;;;;;5047637;28;20041;-67
2022/03/11 03:39:01;;;;;;;16.63;8.82;;;;;;;;;;5048035;28;20494;-67
2022/03/11 03:41:31;;;;;;;15.13;9.02;;;;;;;;;;5047721;28;20127;-67
2022/03/11 03:43:58;;;;;;;16.50;8.98;;;;;;;;;;5050991;28;20072;-67
2022/03/11 03:46:27;;;;;;;16.13;10.00;;;;;;;;;;5046943;28;20061;-67
2022/03/11 03:48:56;;;;;;;18.25;9.68;;;;;;;;;;5047081;28;20496;-67
2022/03/11 03:51:23;;;;;;;17.40;9.25;;;;;;;;;;5031213;28;20056;-67
2022/03/11 03:53:50;;;;;;;20.52;9.55;;;;;;;;;;5048089;28;20045;-67
2022/03/11 03:56:17;;;;;;;15.15;9.38;;;;;;;;;;5043552;28;20541;-67
2022/03/11 03:58:45;;;;;;;19.13;9.45;;;;;;;;;;5046614;28;20060;-67
2022/03/11 04:01:12;;;;;;;20.15;9.90;;;;;;;;;;5049607;28;20499;-67
2022/03/11 04:03:41;;;;;;;19.52;9.75;;;;;;;;;;5039990;28;20057;-67
2022/03/11 04:06:08;;;;;;;20.55;10.48;;;;;;;;;;5048213;28;20076;-67
2022/03/11 04:08:39;;;;;;;20.13;10.35;;;;;;;;;;5046795;28;20400;-67
2022/03/11 04:11:07;;;;;;;20.17;10.52;;;;;;;;;;5043612;28;20059;-67
2022/03/11 04:13:34;;;;;;;19.70;10.82;;;;;;;;;;5043968;28;20053;-67
2022/03/11 04:16:02;;;;;;;17.58;10.38;;;;;;;;;;5046162;28;20060;-67
2022/03/11 04:18:29;;;;;;;19.42;10.40;;;;;;;;;;5036575;28;20084;-67
2022/03/11 04:20:57;;;;;;;21.05;9.93;;;;;;;;;;5040167;28;20107;-67
2022/03/11 04:23:25;;;;;;;22.08;10.85;;;;;;;;;;5038094;28;20052;-67
2022/03/11 04:25:52;;;;;;;17.10;11.25;;;;;;;;;;5042127;28;20407;-67
2022/03/11 04:28:22;;;;;;;19.10;10.95;;;;;;;;;;5039359;28;20061;-67
2022/03/11 04:30:50;;;;;;;15.13;10.27;;;;;;;;;;5045146;28;20132;-67
2022/03/11 04:33:17;;;;;;;17.88;11.10;;;;;;;;;;5043532;28;20110;-67
2022/03/11 04:35:45;;;;;;;24.33;11.07;;;;;;;;;;5046084;28;20061;-67
2022/03/11 04:38:13;;;;;;;20.52;11.88;;;;;;;;;;5047222;28;20052;-67
2022/03/11 04:40:41;;;;;;;17.83;10.95;;;;;;;;;;5046821;28;20155;-67
2022/03/11 04:43:08;;;;;;;17.83;11.50;;;;;;;;;;5045763;28;20053;-67
2022/03/11 04:45:35;;;;;;;19.33;11.25;;;;;;;;;;5046129;28;20061;-67
2022/03/11 04:48:03;;;;;;;18.80;12.30;;;;;;;;;;5045112;28;20057;-67
2022/03/11 04:50:34;;;;;;;19.48;12.23;;;;;;;;;;5042762;28;20085;-67
2022/03/11 04:53:03;;;;;;;19.20;11.55;;;;;;;;;;5047798;28;20057;-67
2022/03/11 04:55:32;;;;;;;20.80;12.45;;;;;;;;;;5041493;28;20071;-67
2022/03/11 04:57:59;;;;;;;18.35;12.27;;;;;;;;;;5046168;28;20103;-67
2022/03/11 05:00:27;;;;;;;20.58;11.88;;;;;;;;;;5042799;28;20454;-67
2022/03/11 05:02:54;;;;;;;22.13;12.77;;;;;;;;;;5045342;28;20047;-67
2022/03/11 05:05:25;;;;;;;20.48;12.43;;;;;;;;;;5040753;28;20057;-67
2022/03/11 05:07:54;;;;;;;19.40;12.48;;;;;;;;;;5045013;28;20049;-67
2022/03/11 05:10:22;;;;;;;19.40;12.13;;;;;;;;;;5045491;28;20414;-67
2022/03/11 05:12:51;;;;;;;19.85;13.05;;;;;;;;;;5043390;28;20041;-67
2022/03/11 05:15:18;;;;;;;23.88;13.10;;;;;;;;;;5041216;28;20071;-67
2022/03/11 05:17:45;;;;;;;22.42;13.27;;;;;;;;;;5043917;28;20064;-67
2022/03/11 05:20:13;;;;;;;22.23;13.07;;;;;;;;;;5040046;28;20064;-67
2022/03/11 05:22:41;;;;;;;22.98;13.75;;;;;;;;;;5044156;28;20053;-67
2022/03/11 05:25:09;;;;;;;21.27;13.30;;;;;;;;;;5042436;28;20041;-67
2022/03/11 05:27:37;;;;;;;20.85;13.38;;;;;;;;;;5044167;28;20080;-67
2022/03/11 05:30:06;;;;;;;23.52;13.63;;;;;;;;;;5044499;28;20055;-67
2022/03/11 05:32:34;;;;;;;21.42;13.73;;;;;;;;;;5046915;28;20072;-67
2022/03/11 05:35:01;;;;;;;23.55;15.20;;;;;;;;;;5042332;28;20410;-67
2022/03/11 05:37:28;;;;;;;21.75;13.68;;;;;;;;;;5042722;28;20041;-67
2022/03/11 05:39:55;;;;;;;25.95;14.90;;;;;;;;;;5047699;28;20048;-67
2022/03/11 05:42:23;;;;;;;27.15;14.43;;;;;;;;;;5041944;28;20495;-67
2022/03/11 05:44:53;;;;;;;24.65;14.60;;;;;;;;;;5044110;28;20166;-67
2022/03/11 05:47:22;;;;;;;22.15;14.30;;;;;;;;;;5039306;28;20415;-67
2022/03/11 05:49:49;;;;;;;22.95;14.10;;;;;;;;;;5032770;28;20060;-67
2022/03/11 05:52:19;;;;;;;22.73;14.32;;;;;;;;;;5031879;28;20098;-67
2022/03/11 05:54:46;;;;;;;29.13;14.32;;;;;;;;;;5039926;28;20044;-67
2022/03/11 05:57:17;;;;;;;26.38;14.93;;;;;;;;;;5035688;28;20051;-67
2022/03/11 05:59:44;;;;;;;26.15;16.05;;;;;;;;;;5038500;28;20056;-67
2022/03/11 06:02:11;;;;;;;24.13;14.30;;;;;;;;;;5038104;28;20052;-67
2022/03/11 06:04:41;;;;;;;26.45;15.73;;;;;;;;;;5038411;28;20045;-67
2022/03/11 06:07:09;;;;;;;25.98;15.13;;;;;;;;;;5038524;28;20373;-67
2022/03/11 06:09:36;;;;;;;25.05;16.52;;;;;;;;;;5039544;28;20068;-67
2022/03/11 06:12:04;;;;;;;27.48;17.02;;;;;;;;;;5040453;28;21555;-67
2022/03/11 06:14:31;;;;;;;30.02;15.45;;;;;;;;;;5039382;28;20075;-67
2022/03/11 06:16:58;;;;;;;25.13;15.65;;;;;;;;;;5039235;28;20053;-67
2022/03/11 06:19:26;;;;;;;29.40;16.35;;;;;;;;;;5035959;28;20052;-67
2022/03/11 06:21:57;;;;;;;27.75;15.88;;;;;;;;;;5037623;28;20132;-67
2022/03/11 06:24:25;;;;;;;28.13;15.98;;;;;;;;;;5039624;28;20060;-67
2022/03/11 06:26:52;;;;;;;28.67;15.98;;;;;;;;;;5040892;28;20060;-67
2022/03/11 06:29:20;;;;;;;26.45;16.15;;;;;;;;;;5041260;28;20049;-67
2022/03/11 06:31:47;;;;;;;28.83;16.45;;;;;;;;;;5041114;28;20052;-67
2022/03/11 06:34:14;;;;;;;24.55;15.82;;;;;;;;;;5041422;28;20106;-67
2022/03/11 06:36:42;;;;;;;29.85;16.70;;;;;;;;;;5041573;28;20496;-67
2022/03/11 06:39:13;;;;;;;29.80;16.42;;;;;;;;;;5039839;28;20483;-67
2022/03/11 06:41:41;;;;;;;32.60;15.48;;;;;;;;;;5037013;28;20056;-67
2022/03/11 06:44:08;;;;;;;24.77;15.68;;;;;;;;;;5041085;28;20044;-67
2022/03/11 06:46:36;;;;;;;27.38;16.27;;;;;;;;;;5038004;28;20061;-67
2022/03/11 06:49:05;;;;;;;26.98;16.13;;;;;;;;;;5039911;28;20057;-67
2022/03/11 06:51:33;;;;;;;26.25;16.45;;;;;;;;;;5041094;28;20373;-67
2022/03/11 06:54:00;;;;;;;26.63;16.38;;;;;;;;;;5035772;28;20783;-67
2022/03/11 06:56:29;;;;;;;27.83;16.23;;;;;;;;;;5037823;28;20064;-67
2022/03/11 06:58:57;;;;;;;29.70;16.42;;;;;;;;;;5036258;28;22137;-67
2022/03/11 07:01:24;;;;;;;27.67;15.88;;;;;;;;;;5029086;28;20053;-68
2022/03/11 07:03:54;;;;;;;23.42;15.38;;;;;;;;;;5034699;28;20102;-68
2022/03/11 07:06:21;;;;;;;28.30;16.10;;;;;;;;;;5035660;28;20057;-68
2022/03/11 07:08:49;;;;;;;26.40;16.27;;;;;;;;;;5040290;28;20044;-67
2022/03/11 07:11:16;;;;;;;26.10;15.73;;;;;;;;;;5040136;28;20052;-68
2022/03/11 07:13:47;;;;;;;24.83;15.10;;;;;;;;;;5038846;28;20791;-67
2022/03/11 07:16:14;;;;;;;24.80;15.65;;;;;;;;;;5040021;28;20049;-67
2022/03/11 07:18:44;;;;;;;24.77;16.20;;;;;;;;;;5035878;28;20115;-67
2022/03/11 07:21:14;;;;;;;26.50;15.90;;;;;;;;;;5038640;28;20485;-67
2022/03/11 07:23:41;;;;;;;27.35;16.48;;;;;;;;;;5037716;28;20148;-67
2022/03/11 07:26:08;;;;;;;26.23;15.95;;;;;;;;;;5037683;28;20056;-67
2022/03/11 07:28:36;;;;;;;25.98;15.48;;;;;;;;;;5036819;28;20049;-67
2022/03/11 07:31:04;;;;;;;26.80;15.52;;;;;;;;;;5039098;28;20077;-67
2022/03/11 07:33:32;;;;;;;24.85;16.08;;;;;;;;;;5039244;28;20057;-67
2022/03/11 07:35:59;;;;;;;27.40;15.80;;;;;;;;;;5039672;28;20061;-67
2022/03/11 07:38:30;;;;;;;26.13;14.77;;;;;;;;;;5035836;28;20126;-67
2022/03/11 07:40:59;;;;;;;26.23;16.05;;;;;;;;;;5032032;28;20794;-67
2022/03/11 07:43:26;;;;;;;24.80;14.68;;;;;;;;;;5030661;28;20553;-67
2022/03/11 07:45:54;;;;;;;24.90;15.20;;;;;;;;;;5038134;28;20040;-67
2022/03/11 07:48:22;;;;;;;23.27;14.75;;;;;;;;;;5034261;28;20077;-67
2022/03/11 07:50:56;;;;;;;23.05;15.43;;;;;;;;;;5040808;28;20118;-67
2022/03/11 07:53:24;;;;;;;27.00;15.63;;;;;;;;;;5041978;28;20055;-67
2022/03/11 07:55:54;;;;;;;24.73;14.57;;;;;;;;;;5042553;28;20048;-67
2022/03/11 07:58:22;;;;;;;23.83;15.07;;;;;;;;;;5041933;28;20064;-67
2022/03/11 08:00:49;;;;;;;25.33;15.23;;;;;;;;;;5036951;28;20056;-67
2022/03/11 08:03:17;;;;;;;24.50;14.70;;;;;;;;;;5035764;28;20668;-67
2022/03/11 08:05:52;;;;;;;22.23;14.50;;;;;;;;;;5042028;28;20053;-67
2022/03/11 08:08:27;;;;;;;23.25;15.48;;;;;;;;;;5043007;28;20053;-67
2022/03/11 08:10:55;;;;;;;29.58;15.00;;;;;;;;;;5038323;28;20045;-67
2022/03/11 08:13:22;;;;;;;28.55;14.20;;;;;;;;;;5038945;28;20111;-67
2022/03/11 08:15:50;;;;;;;22.80;14.07;;;;;;;;;;5039579;28;20068;-67
2022/03/11 08:18:17;;;;;;;22.67;14.77;;;;;;;;;;5036333;28;20053;-67
2022/03/11 08:20:44;;;;;;;21.80;14.05;;;;;;;;;;5037944;28;20581;-67
2022/03/11 08:23:13;;;;;;;26.42;14.25;;;;;;;;;;5037519;28;20050;-67
2022/03/11 08:25:41;;;;;;;24.25;15.20;;;;;;;;;;5038720;28;20068;-67
2022/03/11 08:28:10;;;;;;;27.23;14.80;;;;;;;;;;5038896;28;20049;-67
2022/03/11 08:30:38;;;;;;;20.85;14.07;;;;;;;;;;5040361;28;20072;-67
2022/03/11 08:33:05;;;;;;;26.20;14.93;;;;;;;;;;5035739;28;20428;-67
2022/03/11 08:35:33;;;;;;;25.95;14.27;;;;;;;;;;5039334;28;20395;-67
2022/03/11 08:38:03;;;;;;;22.08;14.40;;;;;;;;;;5037826;28;20111;-67
2022/03/11 08:40:31;;;;;;;22.58;14.43;;;;;;;;;;5039985;28;20500;-67
2022/03/11 08:42:59;;;;;;;21.58;13.98;;;;;;;;;;5040532;28;20065;-67
2022/03/11 08:45:26;;;;;;;22.42;14.13;;;;;;;;;;5040550;28;20094;-67
2022/03/11 08:47:54;;;;;;;29.98;14.32;;;;;;;;;;5035966;28;20073;-67
2022/03/11 08:50:22;;;;;;;27.50;15.15;;;;;;;;;;5036990;28;20060;-67
2022/03/11 08:52:50;;;;;;;23.65;14.13;;;;;;;;;;5039501;28;20500;-67
2022/03/11 08:55:17;;;;;;;23.92;14.63;;;;;;;;;;5037698;28;20063;-67
2022/03/11 08:57:49;;;;;;;25.23;14.13;;;;;;;;;;5038898;28;20049;-69
2022/03/11 09:00:17;;;;;;;26.13;15.45;;;;;;;;;;5042886;28;20041;-68
2022/03/11 09:02:44;;;;;;;24.60;13.88;;;;;;;;;;5033320;28;20045;-69
2022/03/11 09:05:13;;;;;;;21.95;14.10;;;;;;;;;;5035147;28;20551;-68
2022/03/11 09:07:40;;;;;;;21.35;14.13;;;;;;;;;;5041286;28;20052;-68
2022/03/11 09:10:09;;;;;;;23.08;13.65;;;;;;;;;;5045351;28;20057;-68
2022/03/11 09:12:37;;;;;;;20.92;13.60;;;;;;;;;;5045465;28;20579;-68
2022/03/11 09:15:06;;;;;;;21.98;13.43;;;;;;;;;;5044742;28;20064;-68
2022/03/11 09:17:34;;;;;;;23.33;13.70;;;;;;;;;;5042810;28;20049;-69
2022/03/11 09:20:06;;;;;;;22.80;14.15;;;;;;;;;;5037714;28;20057;-69
2022/03/11 09:22:34;;;;;;;22.80;14.10;;;;;;;;;;5042233;28;20110;-68
2022/03/11 09:25:07;;;;;;;21.50;13.68;;;;;;;;;;5040793;28;20048;-68
2022/03/11 09:27:34;;;;;;;20.13;12.80;;;;;;;;;;5036424;28;20107;-68
2022/03/11 09:30:01;;;;;;;23.73;14.23;;;;;;;;;;5038788;28;20044;-69
2022/03/11 09:32:30;;;;;;;23.98;14.25;;;;;;;;;;5036146;28;20060;-68
2022/03/11 09:34:58;;;;;;;21.42;12.90;;;;;;;;;;5035750;28;20095;-68
2022/03/11 09:37:25;;;;;;;22.48;13.52;;;;;;;;;;5043889;28;20058;-69
2022/03/11 09:39:52;;;;;;;20.02;12.77;;;;;;;;;;5041846;28;20056;-68
2022/03/11 09:42:19;;;;;;;19.80;12.60;;;;;;;;;;5036362;28;20053;-68
2022/03/11 09:44:50;;;;;;;24.27;14.10;;;;;;;;;;5037401;28;20784;-68
2022/03/11 09:47:18;;;;;;;23.52;13.32;;;;;;;;;;5037860;28;20045;-68
2022/03/11 09:49:46;;;;;;;23.10;14.80;;;;;;;;;;5038812;28;20500;-68
2022/03/11 09:52:19;;;;;;;21.13;14.40;;;;;;;;;;5035906;28;20080;-68
2022/03/11 09:54:47;;;;;;;22.77;13.30;;;;;;;;;;5040647;28;20462;-68
2022/03/11 09:57:18;;;;;;;20.40;13.43;;;;;;;;;;5037119;28;20135;-68
2022/03/11 09:59:46;;;;;;;31.80;15.80;;;;;;;;;;5020090;28;20045;-68
2022/03/11 10:02:14;;;;;;;20.23;13.73;;;;;;;;;;5043513;28;20072;-68
2022/03/11 10:04:50;;;;;;;24.80;13.57;;;;;;;;;;5042875;28;20048;-68
2022/03/11 10:07:24;;;;;;;21.70;13.38;;;;;;;;;;5042685;28;20048;-68
2022/03/11 10:09:51;;;;;;;23.00;13.70;;;;;;;;;;5041675;28;20512;-68
2022/03/11 10:12:22;;;;;;;20.35;13.50;;;;;;;;;;5040750;28;20458;-68
2022/03/11 10:15:00;;;;;;;24.13;14.07;;;;;;;;;;5043104;28;20048;-68
2022/03/11 10:17:29;;;;;;;24.20;14.00;;;;;;;;;;5040637;28;20103;-68
2022/03/11 10:20:02;;;;;;;23.02;14.23;;;;;;;;;;5045624;28;20052;-68
2022/03/11 10:22:30;;;;;;;26.45;14.80;;;;;;;;;;5043592;28;20049;-68
2022/03/11 10:24:57;;;;;;;24.90;14.05;;;;;;;;;;5042608;28;20059;-68
2022/03/11 10:27:24;;;;;;;23.05;14.38;;;;;;;;;;5041158;28;20056;-68
2022/03/11 10:29:54;;;;;;;20.92;14.05;;;;;;;;;;5041799;28;20048;-68
2022/03/11 10:32:24;;;;;;;29.20;14.20;;;;;;;;;;5042200;28;20084;-68
2022/03/11 10:34:52;;;;;;;29.20;14.15;;;;;;;;;;5042582;28;20053;-68
2022/03/11 10:37:21;;;;;;;26.30;15.15;;;;;;;;;;5042216;28;20128;-68
2022/03/11 10:39:48;;;;;;;24.20;14.13;;;;;;;;;;5045737;28;20060;-68
2022/03/11 10:42:17;;;;;;;23.83;14.20;;;;;;;;;;5041229;28;20064;-68
2022/03/11 10:44:55;;;;;;;27.27;14.13;;;;;;;;;;5043449;28;20096;-68
2022/03/11 10:47:24;;;;;;;20.65;14.27;;;;;;;;;;5043738;28;20103;-68
2022/03/11 10:49:52;;;;;;;25.90;14.07;;;;;;;;;;5042381;28;20054;-68
2022/03/11 10:52:31;;;;;;;21.88;14.07;;;;;;;;;;5037250;28;20053;-68
2022/03/11 10:54:58;;;;;;;25.10;14.52;;;;;;;;;;5042219;28;20118;-68
2022/03/11 10:57:35;;;;;;;21.35;14.07;;;;;;;;;;5041791;28;20479;-68
2022/03/11 11:00:16;;;;;;;25.17;14.25;;;;;;;;;;5039072;28;20088;-68
2022/03/11 11:02:44;;;;;;;26.02;14.35;;;;;;;;;;5041808;28;20059;-68
2022/03/11 11:05:13;;;;;;;24.15;14.35;;;;;;;;;;5044152;28;20353;-68
2022/03/11 11:07:42;;;;;;;22.85;14.20;;;;;;;;;;5042449;28;20511;-68
2022/03/11 11:10:10;;;;;;;26.38;15.50;;;;;;;;;;5038901;28;20057;-68
2022/03/11 11:12:37;;;;;;;25.05;15.50;;;;;;;;;;5042429;28;20061;-68
2022/03/11 11:15:05;;;;;;;21.17;14.45;;;;;;;;;;5039873;28;20506;-68
2022/03/11 11:17:33;;;;;;;22.50;15.07;;;;;;;;;;5041369;28;20520;-68
2022/03/11 11:20:02;;;;;;;21.13;14.68;;;;;;;;;;5035933;28;20473;-68
2022/03/11 11:22:30;;;;;;;24.48;15.23;;;;;;;;;;5040953;28;20057;-68
2022/03/11 11:25:01;;;;;;;23.70;15.30;;;;;;;;;;5041679;28;20688;-68
2022/03/11 11:27:31;;;;;;;27.02;16.33;;;;;;;;;;5039344;28;20057;-68
2022/03/11 11:29:59;;;;;;;22.38;14.23;;;;;;;;;;5040278;28;20053;-68
2022/03/11 11:32:27;;;;;;;24.17;15.77;;;;;;;;;;5041844;28;20060;-68
2022/03/11 11:35:17;;;;;;;21.10;15.40;;;;;;;;;;5044854;28;20505;-68
2022/03/11 11:37:44;;;;;;;24.05;15.57;;;;;;;;;;5044096;28;20499;-68
2022/03/11 11:40:20;;;;;;;22.38;15.07;;;;;;;;;;5043885;28;20053;-68
2022/03/11 11:43:06;;;;;;;23.55;15.13;;;;;;;;;;5046640;28;20518;-68
2022/03/11 11:45:43;;;;;;;25.85;14.88;;;;;;;;;;5041940;28;20053;-68
2022/03/11 11:48:25;;;;;;;23.13;14.73;;;;;;;;;;5046226;28;20049;-68
2022/03/11 11:50:53;;;;;;;22.38;15.35;;;;;;;;;;5044271;28;20061;-68
2022/03/11 11:53:33;;;;;;;23.75;15.07;;;;;;;;;;5044706;28;20053;-68
2022/03/11 11:56:02;;;;;;;23.50;14.85;;;;;;;;;;5041940;28;20049;-68
2022/03/11 11:58:32;;;;;;;23.85;14.70;;;;;;;;;;5047263;28;20512;-68
2022/03/11 12:00:59;;;;;;;30.52;15.45;;;;;;;;;;5045823;28;20052;-68
2022/03/11 12:03:41;;;;;;;24.15;15.35;;;;;;;;;;5038795;28;20116;-68
2022/03/11 12:06:08;;;;;;;21.55;15.25;;;;;;;;;;5044056;28;20132;-68
2022/03/11 12:08:51;;;;;;;23.33;15.02;;;;;;;;;;5042952;28;20132;-68
2022/03/11 12:11:37;;;;;;;21.65;14.55;;;;;;;;;;5040076;28;20574;-68
2022/03/11 12:14:06;;;;;;;23.33;15.85;;;;;;;;;;5043683;28;20048;-68
2022/03/11 12:17:00;;;;;;;23.23;15.23;;;;;;;;;;5044566;28;20699;-68
2022/03/11 12:19:38;;;;;;;21.25;15.60;;;;;;;;;;5040116;28;20060;-68
2022/03/11 12:22:21;;;;;;;23.98;14.20;;;;;;;;;;5039405;28;20055;-67
2022/03/11 12:24:58;;;;;;;19.35;15.10;;;;;;;;;;5042568;28;20052;-67
2022/03/11 12:27:46;;;;;;;21.92;16.33;;;;;;;;;;5042204;28;20150;-67
2022/03/11 12:30:16;;;;;;;20.85;15.13;;;;;;;;;;5012566;28;20075;-67
2022/03/11 12:32:43;;;;;;;18.42;15.45;;;;;;;;;;5038604;28;20069;-67
2022/03/11 12:35:11;;;;;;;19.48;14.98;;;;;;;;;;5037256;28;20049;-67
2022/03/11 12:37:38;;;;;;;25.73;15.52;;;;;;;;;;5045251;28;20052;-67
2022/03/11 12:40:09;;;;;;;21.40;15.45;;;;;;;;;;5042812;28;20053;-67
2022/03/11 12:42:38;;;;;;;22.23;15.93;;;;;;;;;;5039422;28;20048;-67
2022/03/11 12:45:06;;;;;;;20.60;15.73;;;;;;;;;;5041351;28;20049;-67
2022/03/11 12:47:38;;;;;;;21.90;15.55;;;;;;;;;;5046528;28;20054;-67
2022/03/11 12:50:07;;;;;;;21.40;15.07;;;;;;;;;;5043222;28;20090;-67
2022/03/11 12:52:37;;;;;;;37.25;16.90;;;;;;;;;;5042441;28;20052;-67
2022/03/11 12:55:20;;;;;;;20.17;14.48;;;;;;;;;;5040575;28;20496;-67
2022/03/11 12:57:51;;;;;;;21.55;15.13;;;;;;;;;;5042477;28;20586;-67
2022/03/11 13:00:19;;;;;;;20.70;15.05;;;;;;;;;;5043168;28;20733;-67
2022/03/11 13:02:48;;;;;;;19.80;14.88;;;;;;;;;;5044507;28;20125;-69
2022/03/11 13:05:21;;;;;;;19.50;15.25;;;;;;;;;;5046795;28;20049;-68
2022/03/11 13:07:48;;;;;;;19.83;14.70;;;;;;;;;;5046368;28;20064;-67
2022/03/11 13:10:21;;;;;;;20.90;14.50;;;;;;;;;;5039213;28;20115;-67
2022/03/11 13:12:50;;;;;;;;;;;;;;;;;;5042732;28;20049;-67
2022/03/11 13:15:21;;;;;;;22.38;13.70;;;;;;;;;;5044152;28;19929;-67
2022/03/11 13:17:51;;;;;;;19.80;13.55;;;;;;;;;;5045322;28;20415;-67
2022/03/11 13:20:45;;;;;;;21.17;14.60;;;;;;;;;;5045367;28;20052;-67
2022/03/11 13:23:14;;;;;;;17.25;14.10;;;;;;;;;;5021131;28;20048;-67
2022/03/11 13:25:43;;;;;;;21.65;14.60;;;;;;;;;;5035589;28;20172;-67
2022/03/11 13:28:10;;;;;;;19.50;14.50;;;;;;;;;;5034527;28;20411;-67
2022/03/11 13:30:39;;;;;;;22.20;14.13;;;;;;;;;;5040476;28;20065;-67
2022/03/11 13:33:16;;;;;;;18.48;14.23;;;;;;;;;;5038285;28;20080;-68
2022/03/11 13:35:44;;;;;;;19.67;14.50;;;;;;;;;;5035507;28;20103;-67
2022/03/11 13:38:12;;;;;;;18.98;14.02;;;;;;;;;;5038358;28;20044;-67
2022/03/11 13:40:39;;;;;;;18.35;13.57;;;;;;;;;;5035823;28;20056;-67
2022/03/11 13:43:06;;;;;;;15.85;13.77;;;;;;;;;;5038319;28;20053;-67
2022/03/11 13:45:36;;;;;;;21.13;14.75;;;;;;;;;;5038015;28;20049;-67
2022/03/11 13:48:07;;;;;;;20.42;13.98;;;;;;;;;;5038117;28;20060;-67
2022/03/11 13:50:37;;;;;;;18.52;13.77;;;;;;;;;;5043036;28;20103;-67
2022/03/11 13:53:04;;;;;;;19.95;13.32;;;;;;;;;;5045446;28;20072;-67
2022/03/11 13:55:33;;;;;;;19.70;14.57;;;;;;;;;;5044747;28;20056;-67
2022/03/11 13:58:13;;;;;;;19.85;12.98;;;;;;;;;;5041247;28;20380;-68
2022/03/11 14:00:41;;;;;;;19.65;13.55;;;;;;;;;;5043450;28;20044;-68
2022/03/11 14:03:17;;;;;;;18.13;14.45;;;;;;;;;;5043640;28;20400;-68
2022/03/11 14:05:46;;;;;;;19.48;14.32;;;;;;;;;;5042865;28;20056;-68
2022/03/11 14:08:14;;;;;;;20.88;13.38;;;;;;;;;;5043071;28;20138;-68
2022/03/11 14:10:43;;;;;;;15.48;13.10;;;;;;;;;;5040873;28;20063;-68
2022/03/11 14:13:15;;;;;;;17.20;13.88;;;;;;;;;;5043264;28;20048;-68
2022/03/11 14:15:44;;;;;;;19.98;12.80;;;;;;;;;;5036218;28;20049;-67
2022/03/11 14:18:13;;;;;;;19.05;13.48;;;;;;;;;;5036517;28;20057;-67
2022/03/11 14:20:41;;;;;;;20.92;13.38;;;;;;;;;;5040954;28;20107;-67
2022/03/11 14:23:09;;;;;;;20.08;12.82;;;;;;;;;;5040980;28;20060;-67
2022/03/11 14:25:37;;;;;;;18.67;12.50;;;;;;;;;;5032657;28;20408;-67
2022/03/11 14:28:05;;;;;;;19.35;12.90;;;;;;;;;;5043571;28;20060;-68
2022/03/11 14:30:33;;;;;;;18.42;12.95;;;;;;;;;;5035710;28;20044;-68